createdAt,value
2022-11-23T00:01:15.682Z,65.03
2022-11-23T00:03:43.721Z,63.70
2022-11-23T00:06:11.558Z,50.77
2022-11-23T00:08:39.619Z,64.97
2022-11-23T00:11:09.187Z,58.57
2022-11-23T00:13:40.124Z,59.67
2022-11-23T00:16:08.544Z,49.63
2022-11-23T00:18:36.584Z,65.00
2022-11-23T00:21:07.928Z,51.53
2022-11-23T00:23:35.852Z,69.60
2022-11-23T00:26:04.717Z,63.00
2022-11-23T00:28:34.934Z,56.33
2022-11-23T00:31:02.684Z,63.43
2022-11-23T00:33:30.403Z,61.60
2022-11-23T00:36:02.494Z,54.30
2022-11-23T00:38:30.395Z,58.97
2022-11-23T00:41:02.211Z,72.40
2022-11-23T00:43:30.633Z,60.87
2022-11-23T00:46:08.713Z,65.17
2022-11-23T00:48:37.063Z,63.80
2022-11-23T00:51:06.701Z,66.77
2022-11-23T00:53:34.651Z,32.70
2022-11-23T00:56:02.470Z,57.73
2022-11-23T00:58:30.209Z,69.07
2022-11-23T01:01:03.355Z,53.20
2022-11-23T01:03:32.908Z,53.67
2022-11-23T01:06:05.221Z,50.50
2022-11-23T01:08:33.133Z,67.63
2022-11-23T01:11:02.698Z,59.80
2022-11-23T01:13:31.171Z,55.13
2022-11-23T01:16:00.080Z,60.97
2022-11-23T01:18:27.806Z,60.37
2022-11-23T01:20:56.874Z,64.70
2022-11-23T01:23:24.549Z,64.17
2022-11-23T01:25:56.783Z,66.60
2022-11-23T01:28:25.030Z,53.10
2022-11-23T01:30:52.719Z,47.93
2022-11-23T01:33:20.453Z,61.50
2022-11-23T01:35:48.196Z,67.10
2022-11-23T01:38:18.499Z,62.27
2022-11-23T01:40:46.436Z,69.50
2022-11-23T01:43:17.190Z,70.13
2022-11-23T01:45:54.548Z,75.67
2022-11-23T01:48:27.030Z,56.03
2022-11-23T01:50:57.515Z,62.33
2022-11-23T01:53:28.324Z,49.60
2022-11-23T01:56:01.120Z,67.73
2022-11-23T01:58:32.767Z,66.90
2022-11-23T02:01:00.690Z,61.77
2022-11-23T02:03:30.445Z,66.93
2022-11-23T02:06:02.296Z,68.73
2022-11-23T02:08:32.576Z,64.57
2022-11-23T02:11:01.297Z,60.47
2022-11-23T02:13:30.287Z,69.23
2022-11-23T02:15:59.456Z,61.20
2022-11-23T02:18:30.432Z,55.87
2022-11-23T02:21:00.264Z,48.87
2022-11-23T02:23:35.512Z,68.50
2022-11-23T02:26:07.721Z,63.77
2022-11-23T02:28:39.487Z,64.67
2022-11-23T02:31:07.255Z,61.40
2022-11-23T02:33:35.044Z,58.20
2022-11-23T02:36:03.139Z,61.50
2022-11-23T02:38:33.971Z,66.07
2022-11-23T02:41:01.721Z,55.40
2022-11-23T02:43:31.010Z,57.47
2022-11-23T02:46:02.407Z,59.90
2022-11-23T02:48:30.108Z,50.60
2022-11-23T02:50:57.885Z,66.57
2022-11-23T02:53:25.688Z,37.13
2022-11-23T02:55:53.387Z,47.50
2022-11-23T02:58:21.131Z,64.43
2022-11-23T03:00:50.290Z,50.40
2022-11-23T03:03:18.038Z,50.63
2022-11-23T03:05:46.348Z,65.33
2022-11-23T03:08:14.089Z,68.53
2022-11-23T03:10:41.794Z,41.10
2022-11-23T03:13:09.511Z,58.27
2022-11-23T03:15:37.293Z,58.17
2022-11-23T03:18:06.478Z,58.33
2022-11-23T03:20:34.225Z,58.73
2022-11-23T03:23:01.944Z,58.83
2022-11-23T03:25:29.651Z,54.93
2022-11-23T03:27:57.389Z,64.60
2022-11-23T03:30:25.096Z,54.13
2022-11-23T03:32:52.817Z,69.60
2022-11-23T03:35:21.856Z,58.07
2022-11-23T03:37:49.604Z,57.73
2022-11-23T03:40:17.461Z,54.47
2022-11-23T03:42:45.199Z,63.33
2022-11-23T03:45:12.989Z,63.20
2022-11-23T03:47:40.705Z,72.53
2022-11-23T03:50:09.307Z,64.17
2022-11-23T03:52:38.382Z,66.00
2022-11-23T03:55:07.022Z,58.27
2022-11-23T03:57:34.794Z,66.03
2022-11-23T04:00:02.508Z,67.80
2022-11-23T04:02:30.270Z,69.27
2022-11-23T04:04:57.999Z,64.87
2022-11-23T04:07:25.768Z,64.37
2022-11-23T04:09:54.854Z,64.33
2022-11-23T04:12:22.585Z,61.47
2022-11-23T04:14:50.307Z,63.17
2022-11-23T04:17:18.001Z,75.87
2022-11-23T04:19:45.826Z,65.23
2022-11-23T04:22:13.546Z,86.97
2022-11-23T04:24:41.276Z,62.33
2022-11-23T04:27:10.401Z,84.90
2022-11-23T04:29:38.147Z,67.87
2022-11-23T04:32:06.335Z,66.10
2022-11-23T04:34:34.059Z,64.53
2022-11-23T04:37:01.766Z,57.50
2022-11-23T04:39:29.960Z,72.30
2022-11-23T04:41:57.990Z,61.93
2022-11-23T04:44:27.125Z,62.70
2022-11-23T04:46:54.940Z,74.27
2022-11-23T04:49:22.652Z,55.57
2022-11-23T04:51:50.382Z,68.63
2022-11-23T04:54:18.091Z,75.13
2022-11-23T04:56:45.815Z,67.33
2022-11-23T04:59:13.617Z,68.87
2022-11-23T05:01:42.673Z,62.13
2022-11-23T05:04:14.826Z,85.37
2022-11-23T05:06:45.248Z,68.63
2022-11-23T05:09:13.492Z,75.13
2022-11-23T05:11:41.477Z,66.03
2022-11-23T05:14:09.260Z,67.00
2022-11-23T05:16:37.011Z,74.50
2022-11-23T05:19:06.078Z,75.07
2022-11-23T05:21:33.803Z,74.27
2022-11-23T05:24:01.535Z,73.53
2022-11-23T05:26:29.231Z,76.40
2022-11-23T05:28:56.947Z,74.03
2022-11-23T05:31:24.702Z,80.50
2022-11-23T05:33:52.444Z,62.83
2022-11-23T05:36:21.513Z,71.20
2022-11-23T05:38:49.207Z,68.67
2022-11-23T05:41:16.929Z,69.93
2022-11-23T05:43:44.681Z,78.93
2022-11-23T05:46:12.650Z,66.50
2022-11-23T05:48:40.838Z,77.17
2022-11-23T05:51:08.633Z,77.00
2022-11-23T05:53:37.712Z,57.17
2022-11-23T05:56:05.795Z,63.23
2022-11-23T05:58:33.537Z,72.00
2022-11-23T06:01:01.875Z,82.57
2022-11-23T06:03:29.864Z,79.87
2022-11-23T06:05:57.923Z,71.63
2022-11-23T06:08:25.646Z,73.67
2022-11-23T06:10:54.724Z,64.60
2022-11-23T06:13:22.433Z,74.23
2022-11-23T06:15:50.190Z,70.40
2022-11-23T06:18:17.918Z,72.90
2022-11-23T06:20:45.659Z,66.83
2022-11-23T06:23:13.379Z,77.73
2022-11-23T06:25:41.280Z,73.47
2022-11-23T06:28:10.426Z,72.30
2022-11-23T06:30:38.157Z,72.67
2022-11-23T06:33:06.305Z,71.47
2022-11-23T06:35:33.998Z,69.97
2022-11-23T06:38:01.848Z,67.23
2022-11-23T06:40:29.801Z,57.37
2022-11-23T06:42:59.736Z,67.90
2022-11-23T06:45:28.884Z,69.20
2022-11-23T06:47:57.427Z,66.17
2022-11-23T06:50:25.230Z,71.30
2022-11-23T06:52:56.504Z,61.10
2022-11-23T06:55:24.705Z,70.63
2022-11-23T06:57:52.868Z,66.30
2022-11-23T07:00:21.508Z,74.63
2022-11-23T07:02:54.554Z,65.50
2022-11-23T07:05:23.080Z,70.90
2022-11-23T07:07:51.100Z,64.23
2022-11-23T07:10:19.576Z,62.40
2022-11-23T07:12:47.878Z,56.97
2022-11-23T07:15:15.786Z,63.90
2022-11-23T07:17:44.460Z,60.97
2022-11-23T07:20:14.640Z,61.07
2022-11-23T07:22:42.550Z,65.20
2022-11-23T07:25:11.519Z,64.90
2022-11-23T07:27:39.290Z,52.57
2022-11-23T07:30:08.400Z,57.27
2022-11-23T07:32:36.087Z,52.20
2022-11-23T07:35:03.805Z,60.73
2022-11-23T07:37:32.878Z,64.33
2022-11-23T07:40:01.198Z,58.10
2022-11-23T07:42:36.821Z,61.43
2022-11-23T07:45:09.301Z,57.73
2022-11-23T07:47:37.141Z,60.47
2022-11-23T07:50:05.700Z,56.30
2022-11-23T07:52:35.779Z,53.00
2022-11-23T07:55:03.584Z,53.23
2022-11-23T07:57:31.463Z,54.67
2022-11-23T07:59:59.181Z,61.50
2022-11-23T08:02:27.230Z,54.80
2022-11-23T08:04:55.544Z,52.57
2022-11-23T08:07:23.310Z,54.47
2022-11-23T08:09:52.434Z,51.13
2022-11-23T08:12:20.172Z,58.03
2022-11-23T08:14:47.910Z,56.33
2022-11-23T08:17:15.669Z,45.37
2022-11-23T08:19:43.415Z,53.23
2022-11-23T08:22:15.502Z,50.90
2022-11-23T08:24:43.625Z,47.37
2022-11-23T08:27:12.732Z,44.03
2022-11-23T08:29:40.464Z,46.40
2022-11-23T08:32:08.186Z,50.07
2022-11-23T08:34:35.936Z,51.57
2022-11-23T08:37:03.706Z,53.43
2022-11-23T08:39:31.406Z,54.70
2022-11-23T08:41:59.127Z,55.03
2022-11-23T08:44:28.495Z,48.30
2022-11-23T08:46:56.218Z,53.83
2022-11-23T08:49:23.946Z,46.53
2022-11-23T08:51:51.673Z,47.73
2022-11-23T08:54:19.362Z,52.90
2022-11-23T08:56:47.125Z,44.00
2022-11-23T08:59:14.854Z,45.40
2022-11-23T09:01:44.284Z,47.53
2022-11-23T09:04:16.409Z,50.40
2022-11-23T09:06:47.001Z,35.43
2022-11-23T09:09:14.722Z,48.27
2022-11-23T09:11:42.427Z,41.67
2022-11-23T09:14:10.135Z,42.97
2022-11-23T09:16:37.930Z,43.97
2022-11-23T09:19:08.157Z,37.50
2022-11-23T09:21:39.113Z,40.20
2022-11-23T09:24:07.219Z,42.60
2022-11-23T09:26:34.954Z,42.00
2022-11-23T09:29:02.719Z,42.43
2022-11-23T09:31:30.488Z,47.67
2022-11-23T09:33:58.217Z,41.03
2022-11-23T09:36:27.565Z,42.97
2022-11-23T09:38:57.341Z,39.30
2022-11-23T09:41:48.825Z,41.97
2022-11-23T09:44:25.137Z,42.77
2022-11-23T09:47:07.983Z,40.43
2022-11-23T09:49:45.899Z,35.17
2022-11-23T09:52:19.383Z,41.33
2022-11-23T09:54:49.745Z,38.83
2022-11-23T09:57:21.842Z,37.53
2022-11-23T09:59:53.744Z,39.87
2022-11-23T10:02:23.644Z,41.67
2022-11-23T10:04:53.456Z,38.60
2022-11-23T10:07:35.596Z,30.53
2022-11-23T10:10:13.894Z,35.17
2022-11-23T10:12:52.896Z,39.73
2022-11-23T10:15:25.374Z,37.80
2022-11-23T10:18:07.845Z,39.40
2022-11-23T10:20:49.485Z,34.63
2022-11-23T10:23:31.759Z,27.67
2022-11-23T10:26:00.270Z,37.73
2022-11-23T10:28:32.702Z,38.00
2022-11-23T10:31:09.017Z,35.63
2022-11-23T10:33:44.135Z,33.03
2022-11-23T10:36:13.659Z,30.13
2022-11-23T10:38:43.471Z,39.10
2022-11-23T10:41:12.822Z,34.67
2022-11-23T10:43:46.356Z,37.53
2022-11-23T10:46:29.282Z,43.03
2022-11-23T10:49:08.907Z,35.57
2022-11-23T10:51:36.961Z,36.70
2022-11-23T10:54:08.182Z,35.60
2022-11-23T10:56:36.150Z,30.87
2022-11-23T10:59:03.926Z,33.90
2022-11-23T11:01:31.831Z,34.47
2022-11-23T11:04:04.406Z,28.43
2022-11-23T11:06:36.149Z,36.10
2022-11-23T11:09:12.279Z,34.13
2022-11-23T11:11:48.104Z,40.00
2022-11-23T11:14:17.917Z,33.60
2022-11-23T11:16:49.533Z,35.77
2022-11-23T11:19:29.278Z,32.07
2022-11-23T11:21:57.460Z,35.30
2022-11-23T11:24:32.654Z,34.33
2022-11-23T11:27:03.826Z,33.60
2022-11-23T11:29:39.154Z,28.40
2022-11-23T11:32:14.829Z,32.77
2022-11-23T11:34:50.457Z,34.00
2022-11-23T11:37:27.770Z,31.70
2022-11-23T11:39:59.860Z,28.77
2022-11-23T11:42:33.982Z,32.03
2022-11-23T11:45:04.726Z,33.07
2022-11-23T11:47:37.759Z,32.60
2022-11-23T11:50:20.352Z,31.10
2022-11-23T11:52:53.820Z,27.83
2022-11-23T11:55:28.139Z,30.17
2022-11-23T11:58:03.380Z,29.17
2022-11-23T12:00:35.185Z,24.67
2022-11-23T12:03:13.566Z,30.33
2022-11-23T12:05:47.948Z,23.40
2022-11-23T12:08:19.411Z,27.27
2022-11-23T12:10:53.011Z,27.17
2022-11-23T12:13:23.427Z,28.17
2022-11-23T12:15:57.638Z,26.57
2022-11-23T12:18:40.882Z,22.23
2022-11-23T12:21:22.307Z,24.87
2022-11-23T12:24:01.047Z,25.50
2022-11-23T12:26:38.925Z,21.97
2022-11-23T12:29:27.153Z,22.87
2022-11-23T12:32:03.716Z,24.33
2022-11-23T12:34:58.104Z,21.97
2022-11-23T12:37:49.323Z,23.50
2022-11-23T12:40:30.820Z,20.50
2022-11-23T12:43:03.812Z,24.27
2022-11-23T12:45:46.581Z,23.20
2022-11-23T12:48:27.216Z,25.73
2022-11-23T12:51:05.987Z,26.40
2022-11-23T12:53:48.527Z,22.70
2022-11-23T12:56:26.609Z,23.43
2022-11-23T12:58:57.683Z,22.80
2022-11-23T13:01:32.157Z,23.17
2022-11-23T13:04:38.236Z,23.77
2022-11-23T13:07:30.271Z,23.63
2022-11-23T13:10:31.562Z,22.70
2022-11-23T13:13:15.964Z,24.20
2022-11-23T13:16:25.925Z,25.87
2022-11-23T13:19:11.863Z,23.07
2022-11-23T13:21:42.099Z,24.60
2022-11-23T13:24:25.523Z,24.23
2022-11-23T13:27:31.542Z,23.83
2022-11-23T13:30:01.277Z,25.23
2022-11-23T13:32:43.559Z,27.17
2022-11-23T13:35:44.646Z,25.30
2022-11-23T13:38:27.662Z,24.97
2022-11-23T13:40:56.719Z,24.20
2022-11-23T13:43:27.502Z,27.93
2022-11-23T13:46:28.682Z,27.33
2022-11-23T13:48:59.451Z,24.40
2022-11-23T13:51:29.609Z,25.00
2022-11-23T13:54:02.586Z,27.80
2022-11-23T13:56:35.103Z,26.73
2022-11-23T13:59:28.897Z,28.13
2022-11-23T14:02:18.140Z,27.23
2022-11-23T14:04:48.268Z,29.17
2022-11-23T14:07:20.457Z,26.23
2022-11-23T14:09:55.468Z,26.50
2022-11-23T14:12:31.203Z,27.90
2022-11-23T14:15:04.943Z,30.47
2022-11-23T14:18:07.763Z,29.80
2022-11-23T14:20:50.682Z,26.40
2022-11-23T14:23:47.713Z,33.37
2022-11-23T14:26:25.537Z,30.47
2022-11-23T14:29:09.882Z,30.17
2022-11-23T14:31:46.684Z,31.93
2022-11-23T14:34:24.814Z,28.80
2022-11-23T14:37:00.489Z,23.73
2022-11-23T14:39:54.525Z,30.40
2022-11-23T14:42:27.880Z,31.13
2022-11-23T14:44:57.248Z,27.90
2022-11-23T14:47:30.088Z,26.80
2022-11-23T14:49:58.990Z,28.07
2022-11-23T14:52:29.737Z,25.00
2022-11-23T14:54:59.759Z,29.07
2022-11-23T14:57:35.794Z,25.40
2022-11-23T15:00:10.186Z,29.37
2022-11-23T15:02:42.177Z,25.83
2022-11-23T15:05:19.040Z,28.93
2022-11-23T15:07:53.168Z,31.37
2022-11-23T15:10:34.052Z,29.13
2022-11-23T15:13:03.213Z,31.87
2022-11-23T15:15:33.146Z,32.80
2022-11-23T15:18:02.436Z,30.10
2022-11-23T15:20:34.273Z,35.07
2022-11-23T15:23:02.650Z,31.67
2022-11-23T15:25:31.152Z,29.13
2022-11-23T15:27:59.355Z,30.63
2022-11-23T15:30:31.261Z,36.13
2022-11-23T15:33:00.261Z,36.07
2022-11-23T15:35:33.049Z,40.70
2022-11-23T15:38:02.465Z,33.50
2022-11-23T15:40:33.601Z,37.40
2022-11-23T15:43:01.575Z,31.30
2022-11-23T15:45:59.591Z,40.67
2022-11-23T15:48:30.892Z,35.57
2022-11-23T15:51:00.852Z,40.53
2022-11-23T15:53:30.732Z,36.57
2022-11-23T15:56:02.595Z,37.33
2022-11-23T15:58:32.077Z,38.67
2022-11-23T16:01:08.779Z,41.70
2022-11-23T16:03:42.811Z,34.97
2022-11-23T16:06:25.638Z,33.97
2022-11-23T16:08:53.381Z,36.93
2022-11-23T16:11:24.126Z,37.10
2022-11-23T16:13:51.884Z,37.43
2022-11-23T16:16:23.434Z,46.57
2022-11-23T16:18:56.787Z,49.97
2022-11-23T16:21:25.990Z,42.13
2022-11-23T16:23:56.764Z,46.33
2022-11-23T16:26:31.156Z,44.57
2022-11-23T16:29:00.322Z,43.97
2022-11-23T16:31:31.507Z,37.70
2022-11-23T16:33:59.224Z,38.43
2022-11-23T16:36:28.654Z,42.07
2022-11-23T16:38:58.581Z,39.53
2022-11-23T16:41:30.225Z,42.80
2022-11-23T16:43:57.901Z,44.70
2022-11-23T16:46:25.897Z,40.60
2022-11-23T16:48:57.352Z,42.23
2022-11-23T16:51:25.085Z,41.97
2022-11-23T16:54:13.082Z,53.37
2022-11-23T16:56:41.708Z,43.43
2022-11-23T16:59:16.814Z,42.60
2022-11-23T17:01:46.063Z,47.07
2022-11-23T17:04:18.474Z,52.50
2022-11-23T17:06:46.300Z,48.00
2022-11-23T17:09:14.544Z,43.83
2022-11-23T17:11:45.648Z,42.70
2022-11-23T17:14:19.366Z,48.90
2022-11-23T17:16:48.405Z,41.60
2022-11-23T17:19:19.213Z,44.67
2022-11-23T17:21:46.975Z,39.93
2022-11-23T17:24:15.282Z,43.23
2022-11-23T17:26:47.581Z,42.07
2022-11-23T17:29:19.528Z,47.80
2022-11-23T17:31:47.455Z,47.33
2022-11-23T17:34:16.074Z,50.27
2022-11-23T17:36:47.298Z,47.47
2022-11-23T17:39:20.194Z,48.60
2022-11-23T17:41:49.371Z,49.20
2022-11-23T17:44:17.958Z,48.63
2022-11-23T17:46:47.022Z,49.53
2022-11-23T17:49:17.727Z,43.73
2022-11-23T17:51:47.572Z,45.67
2022-11-23T17:54:15.318Z,52.70
2022-11-23T17:56:43.242Z,48.33
2022-11-23T17:59:11.028Z,43.23
2022-11-23T18:01:38.825Z,51.53
2022-11-23T18:04:06.864Z,49.77
2022-11-23T18:06:34.606Z,52.23
2022-11-23T18:09:04.446Z,45.63
2022-11-23T18:11:32.861Z,49.27
2022-11-23T18:14:01.466Z,50.67
2022-11-23T18:16:29.618Z,55.33
2022-11-23T18:18:57.941Z,53.63
2022-11-23T18:21:26.203Z,54.17
2022-11-23T18:23:54.194Z,51.07
2022-11-23T18:26:25.651Z,47.60
2022-11-23T18:28:53.841Z,56.27
2022-11-23T18:31:21.668Z,51.77
2022-11-23T18:33:49.385Z,46.30
2022-11-23T18:36:17.328Z,49.10
2022-11-23T18:38:45.832Z,53.20
2022-11-23T18:41:16.382Z,48.90
2022-11-23T18:43:46.492Z,48.20
2022-11-23T18:46:19.170Z,45.90
2022-11-23T18:48:47.845Z,54.17
2022-11-23T18:51:16.468Z,44.90
2022-11-23T18:53:47.385Z,46.20
2022-11-23T18:56:15.271Z,51.97
2022-11-23T18:58:46.147Z,51.83
2022-11-23T19:01:15.499Z,48.33
2022-11-23T19:03:43.463Z,43.73
2022-11-23T19:06:13.654Z,49.30
2022-11-23T19:08:42.925Z,41.63
2022-11-23T19:11:15.821Z,46.43
2022-11-23T19:13:45.145Z,44.90
2022-11-23T19:16:15.146Z,44.87
2022-11-23T19:18:43.023Z,48.97
2022-11-23T19:21:15.367Z,42.43
2022-11-23T19:23:43.748Z,46.47
2022-11-23T19:26:11.925Z,42.67
2022-11-23T19:28:44.471Z,50.20
2022-11-23T19:31:15.676Z,50.17
2022-11-23T19:33:44.093Z,38.00
2022-11-23T19:36:15.144Z,44.67
2022-11-23T19:38:42.916Z,35.87
2022-11-23T19:41:11.296Z,40.90
2022-11-23T19:43:39.338Z,44.13
2022-11-23T19:46:08.803Z,44.30
2022-11-23T19:48:38.962Z,46.03
2022-11-23T19:51:08.798Z,46.80
2022-11-23T19:53:38.339Z,41.87
2022-11-23T19:56:09.493Z,49.33
2022-11-23T19:58:37.229Z,42.30
2022-11-23T20:01:08.975Z,40.90
2022-11-23T20:03:39.734Z,38.80
2022-11-23T20:06:10.949Z,40.90
2022-11-23T20:08:38.975Z,45.00
2022-11-23T20:11:08.594Z,45.30
2022-11-23T20:13:36.700Z,44.67
2022-11-23T20:16:05.705Z,46.10
2022-11-23T20:18:33.722Z,44.00
2022-11-23T20:21:02.865Z,42.83
2022-11-23T20:23:30.628Z,105.43
2022-11-23T20:25:58.955Z,48.80
2022-11-23T20:28:26.986Z,41.90
2022-11-23T20:30:54.728Z,41.37
2022-11-23T20:33:22.536Z,45.47
2022-11-23T20:35:50.569Z,43.20
2022-11-23T20:38:19.687Z,44.73
2022-11-23T20:40:47.413Z,43.83
2022-11-23T20:43:15.124Z,38.37
2022-11-23T20:45:42.805Z,40.70
2022-11-23T20:48:10.768Z,41.07
2022-11-23T20:50:38.634Z,40.63
2022-11-23T20:53:06.366Z,38.87
2022-11-23T20:55:36.582Z,39.83
2022-11-23T20:58:04.310Z,40.90
2022-11-23T21:00:32.034Z,36.10
2022-11-23T21:02:59.806Z,41.13
2022-11-23T21:05:27.804Z,38.07
2022-11-23T21:07:55.634Z,33.73
2022-11-23T21:10:41.030Z,38.60
2022-11-23T21:13:37.190Z,36.97
2022-11-23T21:16:16.645Z,38.60
2022-11-23T21:18:44.391Z,35.50
2022-11-23T21:21:12.140Z,43.17
2022-11-23T21:23:39.881Z,43.10
2022-11-23T21:26:08.087Z,42.07
2022-11-23T21:28:37.193Z,41.53
2022-11-23T21:31:09.261Z,36.40
2022-11-23T21:33:37.414Z,35.73
2022-11-23T21:36:06.163Z,40.10
2022-11-23T21:38:36.111Z,37.63
2022-11-23T21:41:04.552Z,36.17
2022-11-23T21:43:33.004Z,40.37
2022-11-23T21:46:02.966Z,39.70
2022-11-23T21:48:31.042Z,42.23
2022-11-23T21:51:02.972Z,42.77
2022-11-23T21:53:31.592Z,37.47
2022-11-23T21:56:03.139Z,34.47
2022-11-23T21:58:31.272Z,35.70
2022-11-23T22:01:08.785Z,40.03
2022-11-23T22:03:40.025Z,34.47
2022-11-23T22:06:08.838Z,37.50
2022-11-23T22:08:40.772Z,38.07
2022-11-23T22:11:15.456Z,34.77
2022-11-23T22:13:44.309Z,42.57
2022-11-23T22:16:15.446Z,38.00
2022-11-23T22:18:43.185Z,35.77
2022-11-23T22:21:11.224Z,46.27
2022-11-23T22:23:39.837Z,36.83
2022-11-23T22:26:09.630Z,37.83
2022-11-23T22:28:38.827Z,43.43
2022-11-23T22:31:08.071Z,41.60
2022-11-23T22:33:37.795Z,40.63
2022-11-23T22:36:07.315Z,40.47
2022-11-23T22:38:35.618Z,37.23
2022-11-23T22:41:04.733Z,39.20
2022-11-23T22:43:32.683Z,40.17
2022-11-23T22:46:05.675Z,41.90
2022-11-23T22:48:33.808Z,42.77
2022-11-23T22:51:03.651Z,39.93
2022-11-23T22:53:32.238Z,44.73
2022-11-23T22:56:02.739Z,37.97
2022-11-23T22:58:30.655Z,46.50
2022-11-23T23:00:59.116Z,38.67
2022-11-23T23:03:26.914Z,41.57
2022-11-23T23:05:55.639Z,40.43
2022-11-23T23:08:25.809Z,45.23
2022-11-23T23:10:53.805Z,38.70
2022-11-23T23:13:22.562Z,44.73
2022-11-23T23:15:50.302Z,34.43
2022-11-23T23:18:18.667Z,38.83
2022-11-23T23:20:46.365Z,43.43
2022-11-23T23:23:14.121Z,38.47
2022-11-23T23:25:43.449Z,45.90
2022-11-23T23:28:11.142Z,41.10
2022-11-23T23:30:38.868Z,38.60
2022-11-23T23:33:06.581Z,53.47
2022-11-23T23:35:36.413Z,46.90
2022-11-23T23:38:04.496Z,47.50
2022-11-23T23:40:32.243Z,44.87
2022-11-23T23:43:01.330Z,50.50
2022-11-23T23:45:29.133Z,42.93
2022-11-23T23:47:58.232Z,43.50
2022-11-23T23:50:25.956Z,43.50
2022-11-23T23:52:53.846Z,46.10
2022-11-23T23:55:21.642Z,42.33
2022-11-23T23:57:49.392Z,47.80
